createdAt,value
2022-08-09T00:00:00.255Z,100403.47
2022-08-09T00:02:42.996Z,100394.38
2022-08-09T00:06:17.290Z,100401.44
2022-08-09T00:08:12.929Z,100406.16
2022-08-09T00:10:59.373Z,100396.25
2022-08-09T00:13:31.804Z,100391.06
2022-08-09T00:16:02.447Z,100391.91
2022-08-09T00:18:35.641Z,100399.97
2022-08-09T00:21:07.904Z,100395.59
2022-08-09T00:23:56.009Z,100389.63
2022-08-09T00:26:30.048Z,100397.25
2022-08-09T00:29:12.417Z,100395.41
2022-08-09T00:31:59.893Z,100394.38
2022-08-09T00:34:33.499Z,100396.41
2022-08-09T00:37:02.247Z,100391.88
2022-08-09T00:40:09.000Z,100393.97
2022-08-09T00:44:15.770Z,100394.56
2022-08-09T00:45:14.937Z,100389.19
2022-08-09T00:47:44.250Z,100393.97
2022-08-09T00:50:15.049Z,100392.28
2022-08-09T00:52:43.917Z,100393.97
2022-08-09T00:55:32.729Z,100392.91
2022-08-09T00:58:00.842Z,100385.25
2022-08-09T01:00:30.636Z,100387.72
2022-08-09T01:03:14.598Z,100392.91
2022-08-09T01:05:53.465Z,100386.50
2022-08-09T01:08:32.315Z,100392.72
2022-08-09T01:11:14.981Z,100393.31
2022-08-09T01:13:58.644Z,100394.97
2022-08-09T01:16:35.146Z,100387.72
2022-08-09T01:19:39.984Z,100389.59
2022-08-09T01:22:48.292Z,100384.84
2022-08-09T01:25:37.409Z,100388.78
2022-08-09T01:28:13.017Z,100389.38
2022-08-09T01:30:51.887Z,100383.16
2022-08-09T01:33:25.176Z,100385.84
2022-08-09T01:36:02.790Z,100391.22
2022-08-09T01:38:36.262Z,100391.03
2022-08-09T01:41:13.337Z,100386.69
2022-08-09T01:43:51.187Z,100390.63
2022-08-09T01:46:23.931Z,100395.56
2022-08-09T01:49:00.123Z,100396.41
2022-08-09T01:51:32.275Z,100392.88
2022-08-09T01:54:04.205Z,100392.47
2022-08-09T01:56:36.554Z,100393.91
2022-08-09T01:59:10.922Z,100398.66
2022-08-09T02:01:57.976Z,100394.97
2022-08-09T02:04:28.653Z,100391.63
2022-08-09T02:07:15.505Z,100398.88
2022-08-09T02:10:05.365Z,100396.38
2022-08-09T02:12:36.198Z,100391.81
2022-08-09T02:15:15.330Z,100397.66
2022-08-09T02:18:01.243Z,100401.56
2022-08-09T02:20:44.926Z,100403.84
2022-08-09T02:23:21.324Z,100406.31
2022-08-09T02:25:55.875Z,100404.25
2022-08-09T02:28:32.441Z,100406.72
2022-08-09T02:31:06.102Z,100411.50
2022-08-09T02:34:06.375Z,100409.63
2022-08-09T02:36:32.488Z,100412.13
2022-08-09T02:39:04.893Z,100415.22
2022-08-09T02:41:39.664Z,100423.28
2022-08-09T02:44:29.584Z,100417.69
2022-08-09T02:47:04.998Z,100413.38
2022-08-09T02:49:38.970Z,100423.28
2022-08-09T02:52:14.899Z,100421.63
2022-08-09T02:54:54.719Z,100416.25
2022-08-09T02:57:25.609Z,100426.38
2022-08-09T03:00:20.832Z,100423.28
2022-08-09T03:02:58.589Z,100423.06
2022-08-09T03:05:30.040Z,100423.47
2022-08-09T03:08:05.765Z,100426.81
2022-08-09T03:10:37.354Z,100430.09
2022-08-09T03:13:08.234Z,100427.81
2022-08-09T03:16:06.826Z,100428.00
2022-08-09T03:18:31.204Z,100432.81
2022-08-09T03:21:03.043Z,100431.16
2022-08-09T03:23:31.978Z,100426.16
2022-08-09T03:26:04.877Z,100428.66
2022-08-09T03:28:35.111Z,100427.81
2022-08-09T03:31:10.397Z,100430.31
2022-08-09T03:33:54.383Z,100439.03
2022-08-09T03:36:27.415Z,100438.81
2022-08-09T03:38:56.665Z,100446.06
2022-08-09T03:41:29.872Z,100431.75
2022-08-09T03:44:13.290Z,100435.09
2022-08-09T03:46:44.167Z,100423.28
2022-08-09T03:49:19.247Z,100433.25
2022-08-09T03:51:56.101Z,100436.53
2022-08-09T03:54:31.402Z,100429.94
2022-08-09T03:57:04.488Z,100432.84
2022-08-09T03:59:54.360Z,100436.38
2022-08-09T04:02:26.704Z,100427.06
2022-08-09T04:04:58.701Z,100434.09
2022-08-09T04:07:47.183Z,100434.09
2022-08-09T04:10:20.255Z,100427.47
2022-08-09T04:12:51.455Z,100430.81
2022-08-09T04:15:39.258Z,100432.91
2022-08-09T04:18:17.806Z,100430.00
2022-08-09T04:20:48.489Z,100430.00
2022-08-09T04:23:17.913Z,100427.09
2022-08-09T04:25:52.985Z,100435.38
2022-08-09T04:28:32.897Z,100432.09
2022-08-09T04:31:09.700Z,100437.44
2022-08-09T04:33:47.589Z,100447.81
2022-08-09T04:36:24.722Z,100447.00
2022-08-09T04:38:53.764Z,100438.94
2022-08-09T04:41:23.713Z,100442.44
2022-08-09T04:44:06.936Z,100434.34
2022-08-09T04:46:58.963Z,100440.78
2022-08-09T04:49:40.385Z,100432.06
2022-08-09T04:52:22.315Z,100441.19
2022-08-09T04:54:56.133Z,100439.72
2022-08-09T04:57:25.442Z,100442.03
2022-08-09T04:59:55.117Z,100442.88
2022-08-09T05:02:24.376Z,100437.47
2022-08-09T05:04:56.235Z,100430.66
2022-08-09T05:07:29.353Z,100437.50
2022-08-09T05:10:01.712Z,100426.50
2022-08-09T05:12:32.902Z,100429.81
2022-08-09T05:15:11.550Z,100426.50
2022-08-09T05:18:39.319Z,100426.31
2022-08-09T05:20:40.568Z,100430.22
2022-08-09T05:23:55.221Z,100436.44
2022-08-09T05:25:58.921Z,100441.66
2022-08-09T05:28:27.578Z,100442.72
2022-08-09T05:30:55.939Z,100438.34
2022-08-09T05:33:26.431Z,100439.59
2022-08-09T05:36:04.181Z,100430.50
2022-08-09T05:38:39.136Z,100430.91
2022-08-09T05:41:08.491Z,100428.41
2022-08-09T05:43:45.149Z,100424.25
2022-08-09T05:46:17.525Z,100418.06
2022-08-09T05:48:48.725Z,100419.72
2022-08-09T05:51:42.462Z,100426.38
2022-08-09T05:54:15.492Z,100424.69
2022-08-09T05:56:54.447Z,100415.16
2022-08-09T05:59:24.508Z,100424.47
2022-08-09T06:01:58.579Z,100419.72
2022-08-09T06:04:35.053Z,100425.31
2022-08-09T06:07:03.842Z,100422.84
2022-08-09T06:09:54.328Z,100413.50
2022-08-09T06:12:22.859Z,100420.16
2022-08-09T06:14:54.787Z,100412.28
2022-08-09T06:17:23.054Z,100409.38
2022-08-09T06:19:51.535Z,100408.94
2022-08-09T06:22:23.573Z,100416.59
2022-08-09T06:24:59.094Z,100415.56
2022-08-09T06:27:43.160Z,100416.81
2022-08-09T06:30:18.036Z,100413.94
2022-08-09T06:32:58.900Z,100411.44
2022-08-09T06:35:35.635Z,100403.56
2022-08-09T06:38:19.220Z,100401.88
2022-08-09T06:40:48.941Z,100406.25
2022-08-09T06:43:23.542Z,100412.66
2022-08-09T06:46:06.626Z,100407.69
2022-08-09T06:48:43.046Z,100413.50
2022-08-09T06:51:11.747Z,100410.59
2022-08-09T06:53:40.672Z,100404.41
2022-08-09T06:56:10.865Z,100409.16
2022-08-09T07:00:46.990Z,100410.19
2022-08-09T07:01:35.763Z,100413.09
2022-08-09T07:04:19.707Z,100415.16
2022-08-09T07:06:53.461Z,100405.63
2022-08-09T07:09:55.637Z,100412.88
2022-08-09T07:12:20.153Z,100416.00
2022-08-09T07:14:51.270Z,100418.03
2022-08-09T07:17:22.518Z,100416.59
2022-08-09T07:19:55.474Z,100417.63
2022-08-09T07:22:34.197Z,100417.22
2022-08-09T07:25:11.358Z,100411.25
2022-08-09T07:27:43.261Z,100413.91
2022-08-09T07:30:24.375Z,100410.59
2022-08-09T07:32:53.670Z,100412.25
2022-08-09T07:35:23.552Z,100420.53
2022-08-09T07:37:59.432Z,100407.91
2022-08-09T07:40:37.427Z,100416.41
2022-08-09T07:43:18.087Z,100413.09
2022-08-09T07:45:46.481Z,100405.63
2022-08-09T07:48:28.413Z,100417.22
2022-08-09T07:51:09.823Z,100407.28
2022-08-09T07:54:04.936Z,100400.88
2022-08-09T07:56:34.973Z,100408.94
2022-08-09T07:59:15.715Z,100414.34
2022-08-09T08:01:53.040Z,100401.47
2022-08-09T08:04:25.598Z,100409.38
2022-08-09T08:07:57.390Z,100404.19
2022-08-09T08:09:53.329Z,100406.44
2022-08-09T08:12:29.148Z,100402.50
2022-08-09T08:14:59.476Z,100396.91
2022-08-09T08:17:51.918Z,100400.84
2022-08-09T08:20:16.424Z,100405.22
2022-08-09T08:22:48.351Z,100402.72
2022-08-09T08:25:16.946Z,100400.44
2022-08-09T08:27:49.833Z,100403.97
2022-08-09T08:30:20.008Z,100393.41
2022-08-09T08:32:52.624Z,100394.03
2022-08-09T08:35:22.869Z,100404.38
2022-08-09T08:38:01.806Z,100404.81
2022-08-09T08:40:34.490Z,100399.44
2022-08-09T08:43:08.958Z,100398.59
2022-08-09T08:45:59.624Z,100398.59
2022-08-09T08:48:51.592Z,100398.16
2022-08-09T08:51:20.582Z,100399.00
2022-08-09T08:54:03.365Z,100401.06
2022-08-09T08:56:35.774Z,100389.25
2022-08-09T08:59:19.278Z,100389.47
2022-08-09T09:01:53.371Z,100392.97
2022-08-09T09:04:31.170Z,100389.47
2022-08-09T09:07:07.922Z,100391.97
2022-08-09T09:09:59.404Z,100384.88
2022-08-09T09:12:32.039Z,100384.88
2022-08-09T09:15:05.578Z,100385.94
2022-08-09T09:17:49.293Z,100387.38
2022-08-09T09:20:21.753Z,100387.38
2022-08-09T09:22:55.831Z,100387.38
2022-08-09T09:26:03.164Z,100376.19
2022-08-09T09:29:02.451Z,100376.59
2022-08-09T09:31:17.545Z,100383.25
2022-08-09T09:34:14.435Z,100380.56
2022-08-09T09:36:51.047Z,100380.34
2022-08-09T09:39:42.898Z,100387.19
2022-08-09T09:42:25.598Z,100369.13
2022-08-09T09:44:59.399Z,100366.25
2022-08-09T09:47:29.394Z,100363.75
2022-08-09T09:50:13.621Z,100360.03
2022-08-09T09:52:53.809Z,100360.03
2022-08-09T09:55:32.308Z,100350.47
2022-08-09T09:58:16.188Z,100365.44
2022-08-09T10:00:53.788Z,100359.84
2022-08-09T10:03:57.029Z,100360.03
2022-08-09T10:06:32.481Z,100360.44
2022-08-09T10:09:12.006Z,100365.63
2022-08-09T10:12:04.457Z,100372.25
2022-08-09T10:14:47.861Z,100370.63
2022-08-09T10:17:51.254Z,100365.44
2022-08-09T10:20:31.844Z,100364.59
2022-08-09T10:23:19.991Z,100373.72
2022-08-09T10:26:06.008Z,100369.13
2022-08-09T10:28:38.424Z,100359.19
2022-08-09T10:34:08.257Z,100351.09
2022-08-09T10:36:38.668Z,100355.69
2022-08-09T10:39:15.949Z,100345.91
2022-08-09T10:41:47.917Z,100343.44
2022-08-09T10:44:19.653Z,100341.78
2022-08-09T10:48:19.156Z,100335.13
2022-08-09T10:50:27.248Z,100336.41
2022-08-09T10:53:10.070Z,100337.84
2022-08-09T10:55:58.188Z,100338.03
2022-08-09T10:58:33.672Z,100337.41
2022-08-09T11:03:11.488Z,100330.16
2022-08-09T11:04:20.145Z,100327.06
2022-08-09T11:07:57.425Z,100322.28
2022-08-09T11:10:18.759Z,100322.28
2022-08-09T11:13:49.958Z,100321.84
2022-08-09T11:16:35.875Z,100318.75
2022-08-09T11:19:09.478Z,100318.97
2022-08-09T11:21:54.994Z,100311.47
2022-08-09T11:24:26.788Z,100314.41
2022-08-09T11:26:58.057Z,100317.31
2022-08-09T11:30:05.050Z,100308.56
2022-08-09T11:32:45.506Z,100304.88
2022-08-09T11:35:18.723Z,100302.59
2022-08-09T11:37:56.500Z,100309.03
2022-08-09T11:40:31.889Z,100309.84
2022-08-09T11:43:02.612Z,100303.63
2022-08-09T11:45:43.154Z,100304.66
2022-08-09T11:48:26.757Z,100299.91
2022-08-09T11:52:49.617Z,100297.38
2022-08-09T11:54:14.394Z,100286.22
2022-08-09T11:56:50.094Z,100290.97
2022-08-09T11:59:33.550Z,100290.13
2022-08-09T12:02:17.578Z,100297.78
2022-08-09T12:04:58.126Z,100288.91
2022-08-09T12:07:41.161Z,100288.91
2022-08-09T12:10:14.487Z,100293.47
2022-08-09T12:13:03.784Z,100286.41
2022-08-09T12:15:52.323Z,100284.78
2022-08-09T12:18:29.729Z,100277.50
2022-08-09T12:21:00.431Z,100281.44
2022-08-09T12:23:56.486Z,100270.88
2022-08-09T12:26:19.765Z,100281.88
2022-08-09T12:29:13.385Z,100276.47
2022-08-09T12:31:58.897Z,100272.13
2022-08-09T12:34:36.779Z,100276.25
2022-08-09T12:37:22.299Z,100270.66
2022-08-09T12:40:03.555Z,100269.19
2022-08-09T12:42:35.058Z,100275.44
2022-08-09T12:45:32.463Z,100264.03
2022-08-09T12:47:53.893Z,100270.44
2022-08-09T12:50:25.122Z,100276.25
2022-08-09T12:53:09.001Z,100273.97
2022-08-09T12:56:15.908Z,100275.41
2022-08-09T12:58:28.291Z,100269.63
2022-08-09T13:00:58.276Z,100276.25
2022-08-09T13:03:57.166Z,100273.13
2022-08-09T13:06:34.739Z,100276.03
2022-08-09T13:09:12.603Z,100275.63
2022-08-09T13:11:43.279Z,100276.69
2022-08-09T13:14:41.025Z,100278.75
2022-08-09T13:17:05.211Z,100271.72
2022-08-09T13:20:09.680Z,100269.22
2022-08-09T13:22:36.265Z,100274.81
2022-08-09T13:25:14.681Z,100271.72
2022-08-09T13:27:54.483Z,100271.72
2022-08-09T13:30:50.598Z,100259.88
2022-08-09T13:33:23.967Z,100264.84
2022-08-09T13:36:24.466Z,100256.94
2022-08-09T13:38:56.621Z,100259.22
2022-08-09T13:41:59.046Z,100257.19
2022-08-09T13:44:16.800Z,100257.56
2022-08-09T13:47:26.713Z,100254.25
2022-08-09T13:49:56.418Z,100253.41
2022-08-09T13:52:27.102Z,100251.97
2022-08-09T13:55:00.899Z,100255.25
2022-08-09T13:57:36.846Z,100252.97
2022-08-09T14:00:12.631Z,100248.00
2022-08-09T14:03:03.637Z,100242.81
2022-08-09T14:06:01.459Z,100250.72
2022-08-09T14:08:21.052Z,100240.94
2022-08-09T14:10:53.135Z,100237.22
2022-08-09T14:14:15.945Z,100250.50
2022-08-09T14:16:16.064Z,100239.53
2022-08-09T14:18:49.042Z,100253.19
2022-08-09T14:21:18.857Z,100252.56
2022-08-09T14:23:55.620Z,100242.19
2022-08-09T14:26:31.765Z,100243.84
2022-08-09T14:29:02.659Z,100242.41
2022-08-09T14:31:36.218Z,100244.88
2022-08-09T14:34:30.798Z,100244.00
2022-08-09T14:37:06.674Z,100241.97
2022-08-09T14:39:45.444Z,100239.44
2022-08-09T14:42:28.997Z,100237.59
2022-08-09T14:46:39.900Z,100228.66
2022-08-09T14:47:58.408Z,100238.63
2022-08-09T14:50:28.530Z,100240.09
2022-08-09T14:52:56.894Z,100235.50
2022-08-09T14:55:29.062Z,100242.09
2022-08-09T14:58:03.633Z,100231.72
2022-08-09T15:00:33.703Z,100237.50
2022-08-09T15:03:02.208Z,100241.09
2022-08-09T15:05:32.286Z,100245.16
2022-08-09T15:08:00.713Z,100230.19
2022-08-09T15:10:31.553Z,100241.22
2022-08-09T15:13:03.320Z,100236.66
2022-08-09T15:15:34.558Z,100242.91
2022-08-09T15:18:12.502Z,100239.78
2022-08-09T15:21:57.234Z,100231.25
2022-08-09T15:24:09.073Z,100232.47
2022-08-09T15:26:31.261Z,100231.25
2022-08-09T15:29:04.628Z,100222.31
2022-08-09T15:31:41.507Z,100229.81
2022-08-09T15:34:32.838Z,100230.03
2022-08-09T15:37:01.221Z,100220.81
2022-08-09T15:39:48.740Z,100227.69
2022-08-09T15:42:22.028Z,100223.56
2022-08-09T15:44:51.842Z,100224.81
2022-08-09T15:47:23.568Z,100230.66
2022-08-09T15:50:11.688Z,100222.09
2022-08-09T15:52:54.599Z,100227.91
2022-08-09T15:55:54.022Z,100228.28
2022-08-09T15:58:26.936Z,100220.19
2022-08-09T16:00:57.290Z,100232.69
2022-08-09T16:03:37.941Z,100236.59
2022-08-09T16:06:32.633Z,100227.06
2022-08-09T16:09:01.186Z,100232.03
2022-08-09T16:11:32.200Z,100225.47
2022-08-09T16:14:07.031Z,100226.69
2022-08-09T16:16:39.036Z,100224.16
2022-08-09T16:19:13.478Z,100222.72
2022-08-09T16:21:48.502Z,100230.19
2022-08-09T16:24:33.610Z,100225.88
2022-08-09T16:27:05.202Z,100230.81
2022-08-09T16:29:37.903Z,100225.81
2022-08-09T16:32:34.243Z,100230.81
2022-08-09T16:35:03.884Z,100236.16
2022-08-09T16:37:54.470Z,100228.28
2022-08-09T16:40:40.038Z,100235.16
2022-08-09T16:43:10.649Z,100237.22
2022-08-09T16:45:44.472Z,100237.00
2022-08-09T16:48:41.897Z,100237.06
2022-08-09T16:51:08.189Z,100239.56
2022-08-09T16:53:47.263Z,100238.13
2022-08-09T16:56:26.283Z,100240.41
2022-08-09T16:58:59.548Z,100234.16
2022-08-09T17:01:34.017Z,100237.44
2022-08-09T17:04:06.543Z,100239.19
2022-08-09T17:08:40.270Z,100244.16
2022-08-09T17:09:46.010Z,100245.00
2022-08-09T17:12:12.122Z,100245.00
2022-08-09T17:14:48.085Z,100242.09
2022-08-09T17:17:26.432Z,100252.50
2022-08-09T17:20:28.691Z,100246.06
2022-08-09T17:22:49.829Z,100254.78
2022-08-09T17:25:22.260Z,100248.38
2022-08-09T18:13:40.825Z,100271.72
2022-08-09T18:16:04.891Z,100272.31
2022-08-09T18:18:32.616Z,100277.06
2022-08-09T18:21:12.348Z,100279.13
2022-08-09T18:24:11.543Z,100272.50
2022-08-09T18:26:45.871Z,100279.13
2022-08-09T18:30:42.120Z,100271.06
2022-08-09T18:32:05.829Z,100277.47
2022-08-09T18:34:35.694Z,100275.59
2022-08-09T18:37:05.086Z,100275.59
2022-08-09T18:39:45.530Z,100281.22
2022-08-09T18:42:17.378Z,100272.06
2022-08-09T18:44:47.069Z,100271.47
2022-08-09T18:47:18.479Z,100267.94
2022-08-09T18:49:49.070Z,100272.31
2022-08-09T18:52:28.667Z,100272.94
2022-08-09T18:55:03.633Z,100264.22
2022-08-09T18:57:42.832Z,100264.22
2022-08-09T19:00:16.705Z,100263.19
2022-08-09T19:02:50.910Z,100269.63
2022-08-09T19:05:41.367Z,100267.56
2022-08-09T19:08:11.950Z,100269.16
2022-08-09T19:10:47.975Z,100264.22
2022-08-09T19:13:18.437Z,100256.97
2022-08-09T19:15:52.928Z,100268.16
2022-08-09T19:18:33.488Z,100261.31
2022-08-09T19:21:09.593Z,100264.22
2022-08-09T19:24:32.337Z,100268.34
2022-08-09T19:26:31.004Z,100255.72
2022-08-09T19:29:01.591Z,100256.31
2022-08-09T19:31:45.679Z,100246.38
2022-08-09T19:34:21.955Z,100249.28
2022-08-09T19:36:52.512Z,100257.56
2022-08-09T19:39:42.946Z,100254.28
2022-08-09T19:42:15.190Z,100250.75
2022-08-09T19:44:50.576Z,100252.41
2022-08-09T19:47:23.703Z,100253.84
2022-08-09T19:50:06.931Z,100259.25
2022-08-09T19:52:51.758Z,100250.28
2022-08-09T19:55:25.626Z,100250.97
2022-08-09T19:57:54.408Z,100248.88
2022-08-09T20:00:22.754Z,100249.06
2022-08-09T20:04:16.869Z,100256.16
2022-08-09T20:05:46.040Z,100253.66
2022-08-09T20:08:25.061Z,100254.25
2022-08-09T20:11:04.487Z,100252.59
2022-08-09T20:13:36.781Z,100249.06
2022-08-09T20:16:37.271Z,100256.78
2022-08-09T20:19:42.734Z,100253.88
2022-08-09T20:21:56.103Z,100250.34
2022-08-09T20:24:29.643Z,100253.44
2022-08-09T20:27:05.633Z,100252.59
2022-08-09T20:29:39.666Z,100249.91
2022-08-09T20:32:30.671Z,100257.19
2022-08-09T20:35:01.687Z,100252.59
2022-08-09T20:37:37.774Z,100253.44
2022-08-09T20:40:26.987Z,100252.59
2022-08-09T20:42:59.950Z,100250.16
2022-08-09T20:46:01.242Z,100249.06
2022-08-09T20:48:21.266Z,100249.28
2022-08-09T20:50:55.614Z,100247.03
2022-08-09T20:53:37.653Z,100243.69
2022-08-09T20:56:17.347Z,100252.63
2022-08-09T20:58:57.917Z,100243.09
2022-08-09T21:01:34.463Z,100245.34
2022-08-09T21:05:51.339Z,100245.78
2022-08-09T21:07:13.202Z,100246.78
2022-08-09T21:09:45.946Z,100244.72
2022-08-09T21:15:13.648Z,100237.91
2022-08-09T21:18:23.693Z,100243.88
2022-08-09T21:20:31.011Z,100236.47
2022-08-09T21:23:00.993Z,100238.94
2022-08-09T21:25:55.949Z,100240.19
2022-08-09T21:28:35.152Z,100243.28
2022-08-09T21:31:17.980Z,100226.06
2022-08-09T21:33:54.488Z,100232.72
2022-08-09T21:36:28.690Z,100227.13
2022-08-09T21:38:59.883Z,100223.00
2022-08-09T21:42:03.661Z,100228.59
2022-08-09T21:44:33.939Z,100226.91
2022-08-09T21:47:08.474Z,100218.03
2022-08-09T21:49:39.858Z,100218.63
2022-08-09T21:52:17.140Z,100224.44
2022-08-09T21:55:03.122Z,100227.13
2022-08-09T21:57:39.459Z,100227.72
2022-08-09T22:00:32.361Z,100220.09
2022-08-09T22:03:04.925Z,100228.16
2022-08-09T22:05:41.730Z,100237.28
2022-08-09T22:08:14.617Z,100225.69
2022-08-09T22:11:50.099Z,100218.41
2022-08-09T22:13:38.322Z,100215.72
2022-08-09T22:16:09.116Z,100214.91
2022-08-09T22:18:53.059Z,100216.56
2022-08-09T22:21:27.251Z,100218.41
2022-08-09T22:24:07.882Z,100214.06
2022-08-09T22:26:51.289Z,100218.41
2022-08-09T22:29:24.035Z,100215.72
2022-08-09T22:31:56.776Z,100211.16
2022-08-09T22:34:26.717Z,100209.53
2022-08-09T22:36:55.618Z,100204.94
2022-08-09T22:39:55.809Z,100204.72
2022-08-09T22:42:21.500Z,100207.84
2022-08-09T22:45:00.055Z,100195.84
2022-08-09T22:48:16.013Z,100194.56
2022-08-09T22:50:29.890Z,100197.28
2022-08-09T22:52:58.811Z,100197.06
2022-08-09T22:55:39.265Z,100198.31
2022-08-09T22:58:20.293Z,100187.53
2022-08-09T23:01:02.627Z,100189.59
2022-08-09T23:04:06.059Z,100183.41
2022-08-09T23:06:30.038Z,100178.84
2022-08-09T23:09:02.512Z,100178.84
2022-08-09T23:11:30.835Z,100180.94
2022-08-09T23:14:00.566Z,100178.84
2022-08-09T23:16:28.933Z,100175.75
2022-08-09T23:18:57.238Z,100171.41
2022-08-09T23:21:28.821Z,100169.31
2022-08-09T23:24:05.947Z,100171.41
2022-08-09T23:26:35.725Z,100163.31
2022-08-09T23:29:06.054Z,100168.94
2022-08-09T23:31:34.471Z,100177.00
2022-08-09T23:34:03.915Z,100174.31
2022-08-09T23:36:33.052Z,100174.31
2022-08-09T23:39:01.407Z,100174.75
2022-08-09T23:41:30.072Z,100168.50
2022-08-09T23:44:02.567Z,100165.59
2022-08-09T23:46:32.956Z,100168.50
2022-08-09T23:49:01.824Z,100173.91
2022-08-09T23:51:30.157Z,100168.50
2022-08-09T23:54:02.667Z,100168.94
2022-08-09T23:56:53.616Z,100169.97
2022-08-09T23:59:21.531Z,100163.16
